Time;durP1;ratioP1;P1;durP2;ratioP2;P2;SDS_P1;SDS_P2;PMS_P1;PMS_P2;Temp;Humidity;BMP_temperature;BMP_pressure;BME280_temperature;BME280_humidity;BME280_pressure;Samples;Min_cycle;Max_cycle;Signal;HPM_P1;HPM_P2
2022/11/09 00:01:07;;;;;;;2.53;0.90;;;;;;;13.64;71.09;100102.97;5025021;28;20046;-78
2022/11/09 00:03:34;;;;;;;1.92;1.40;;;;;;;13.62;71.13;100094.25;5028946;28;20066;-77
2022/11/09 00:06:01;;;;;;;2.33;0.80;;;;;;;13.59;71.40;100089.09;5013466;28;20065;-76
2022/11/09 00:08:28;;;;;;;0.75;0.73;;;;;;;13.57;71.28;100089.13;5030500;28;20037;-75
2022/11/09 00:10:54;;;;;;;5.85;1.20;;;;;;;13.63;71.40;100086.31;5023284;28;20504;-76
2022/11/09 00:13:21;;;;;;;1.48;1.02;;;;;;;13.65;71.09;100089.75;5015085;28;20140;-76
2022/11/09 00:15:48;;;;;;;1.58;0.98;;;;;;;13.72;70.93;100087.81;5034161;28;20041;-76
2022/11/09 00:18:14;;;;;;;1.23;0.70;;;;;;;13.67;70.86;100080.03;5034471;28;20046;-79
2022/11/09 00:20:42;;;;;;;0.85;0.85;;;;;;;13.63;71.30;100085.47;5022745;28;20687;-79
2022/11/09 00:23:08;;;;;;;4.68;1.20;;;;;;;13.61;71.55;100080.25;5027497;28;20068;-76
2022/11/09 00:25:35;;;;;;;3.17;0.90;;;;;;;13.63;71.26;100083.69;5012351;28;20045;-76
2022/11/09 00:28:01;;;;;;;1.15;0.80;;;;;;;13.62;71.28;100079.31;5023021;28;20040;-76
2022/11/09 00:30:28;;;;;;;3.17;0.73;;;;;;;13.59;71.63;100078.56;5022825;28;20045;-78
2022/11/09 00:32:55;;;;;;;1.02;0.65;;;;;;;13.54;71.41;100071.66;5029718;28;20097;-75
2022/11/09 00:35:22;;;;;;;1.30;0.93;;;;;;;13.51;71.88;100071.78;5021296;28;20049;-81
2022/11/09 00:37:48;;;;;;;1.98;0.68;;;;;;;13.50;71.90;100077.09;5031538;28;20041;-75
2022/11/09 00:40:15;;;;;;;5.95;1.17;;;;;;;13.49;72.17;100075.34;5014399;28;20478;-77
2022/11/09 00:42:41;;;;;;;0.82;0.77;;;;;;;13.50;72.04;100063.94;5036883;28;20067;-79
2022/11/09 00:45:10;;;;;;;0.52;0.52;;;;;;;13.53;71.76;100062.09;5036032;28;20053;-75
2022/11/09 00:47:37;;;;;;;2.50;0.80;;;;;;;13.57;71.53;100061.06;5019448;28;20056;-76
2022/11/09 00:50:05;;;;;;;0.93;0.88;;;;;;;13.64;71.40;100059.09;5024065;28;20041;-76
2022/11/09 00:52:31;;;;;;;1.67;0.95;;;;;;;13.66;71.16;100057.31;5031130;28;20076;-76
2022/11/09 00:54:58;;;;;;;3.17;0.80;;;;;;;13.63;71.22;100049.50;5015520;28;20046;-76
2022/11/09 00:57:24;;;;;;;1.67;1.17;;;;;;;13.60;71.36;100056.59;5039560;28;20483;-78
2022/11/09 00:59:52;;;;;;;1.73;0.50;;;;;;;13.63;71.32;100062.63;5014926;28;20073;-75
2022/11/09 01:02:19;;;;;;;1.23;0.65;;;;;;;13.64;71.24;100067.00;5016387;28;20172;-77
2022/11/09 01:04:45;;;;;;;1.55;1.10;;;;;;;13.63;71.24;100072.31;5017860;28;20072;-78
2022/11/09 01:07:12;;;;;;;0.73;0.73;;;;;;;13.59;71.62;100065.44;5021067;28;20049;-76
2022/11/09 01:09:39;;;;;;;1.60;1.30;;;;;;;13.57;71.33;100066.34;5018182;28;20825;-76
2022/11/09 01:12:05;;;;;;;0.82;0.82;;;;;;;13.56;71.86;100061.13;5011399;28;20064;-78
2022/11/09 01:14:32;;;;;;;0.60;0.60;;;;;;;13.51;71.77;100058.63;5030272;28;20041;-76
2022/11/09 01:16:58;;;;;;;2.35;0.70;;;;;;;13.53;71.82;100063.81;5005817;28;20046;-75
2022/11/09 01:19:25;;;;;;;1.85;0.65;;;;;;;13.52;71.66;100062.97;5030538;28;20487;-76
2022/11/09 01:21:51;;;;;;;2.70;1.13;;;;;;;13.49;71.68;100055.19;5014013;28;20443;-75
2022/11/09 01:24:18;;;;;;;1.38;0.73;;;;;;;13.49;71.85;100054.31;5037032;28;20508;-75
2022/11/09 01:26:44;;;;;;;3.17;0.60;;;;;;;13.47;71.77;100059.63;4999985;28;20437;-75
2022/11/09 01:29:11;;;;;;;0.73;0.60;;;;;;;13.46;71.86;100057.91;5029962;28;20124;-78
2022/11/09 01:31:37;;;;;;;0.73;0.73;;;;;;;13.51;71.73;100060.41;5009560;28;20392;-76
2022/11/09 01:34:04;;;;;;;0.65;0.65;;;;;;;13.54;71.33;100055.88;5032209;28;20048;-76
2022/11/09 01:36:30;;;;;;;1.45;0.70;;;;;;;13.55;71.44;100060.25;5018344;28;20069;-79
2022/11/09 01:38:57;;;;;;;2.97;0.45;;;;;;;13.58;71.13;100056.66;5025133;28;20037;-77
2022/11/09 01:41:27;;;;;;;2.47;0.80;;;;;;;13.61;70.94;100056.59;5035142;28;20041;-76
2022/11/09 01:44:12;;;;;;;1.25;0.93;;;;;;;13.62;70.93;100060.91;5013459;28;20042;-75
2022/11/09 01:46:58;;;;;;;1.10;1.00;;;;;;;13.64;70.86;100045.09;5006735;28;20100;-75
2022/11/09 01:49:58;;;;;;;1.13;0.77;;;;;;;13.63;70.93;100061.78;5021888;28;20561;-75
2022/11/09 01:52:33;;;;;;;0.68;0.50;;;;;;;13.65;70.56;100058.22;5021464;28;20053;-75
2022/11/09 01:55:06;;;;;;;1.00;0.57;;;;;;;13.66;70.78;100052.03;5030750;28;20037;-76
2022/11/09 01:57:38;;;;;;;0.65;0.57;;;;;;;13.63;70.95;100044.22;5005443;28;20461;-79
2022/11/09 02:00:10;;;;;;;0.95;0.65;;;;;;;13.63;71.05;100041.59;5013455;28;20049;-79
2022/11/09 02:02:43;;;;;;;0.82;0.50;;;;;;;13.65;70.89;100044.19;5028884;28;20125;-76
2022/11/09 02:05:14;;;;;;;2.15;0.60;;;;;;;13.66;70.97;100048.53;5027133;28;20089;-78
2022/11/09 02:07:49;;;;;;;1.75;0.70;;;;;;;13.63;70.87;100051.28;4994988;28;20057;-76
2022/11/09 02:10:46;;;;;;;1.60;1.17;;;;;;;13.63;70.82;100043.38;5014066;28;20081;-77
2022/11/09 02:13:16;;;;;;;2.00;1.10;;;;;;;13.59;71.32;100039.97;4999347;28;20064;-77
2022/11/09 02:15:43;;;;;;;1.48;0.55;;;;;;;13.60;71.32;100043.47;5011232;28;20041;-76
2022/11/09 02:18:10;;;;;;;1.60;1.20;;;;;;;13.65;71.18;100042.44;5008274;28;20041;-76
2022/11/09 02:20:47;;;;;;;2.13;0.70;;;;;;;13.70;70.96;100039.63;5012177;28;20052;-76
2022/11/09 02:23:14;;;;;;;1.65;0.80;;;;;;;13.73;70.98;100047.44;5029625;28;20144;-77
2022/11/09 02:25:40;;;;;;;1.42;0.60;;;;;;;13.74;71.04;100043.91;5024353;28;20567;-79
2022/11/09 02:28:08;;;;;;;0.77;0.77;;;;;;;13.68;70.95;100050.22;5030248;28;20052;-76
2022/11/09 02:30:36;;;;;;;1.92;1.55;;;;;;;13.62;71.54;100050.38;5014663;28;20043;-79
2022/11/09 02:33:03;;;;;;;0.50;0.45;;;;;;;13.61;71.70;100039.94;5017157;28;20404;-78
2022/11/09 02:35:29;;;;;;;1.40;0.80;;;;;;;13.59;71.98;100034.72;5031645;28;20055;-77
2022/11/09 02:37:58;;;;;;;0.60;0.60;;;;;;;13.56;71.89;100034.81;5032126;28;20041;-81
2022/11/09 02:40:35;;;;;;;0.50;0.50;;;;;;;13.52;72.35;100035.84;5023946;28;20080;-76
2022/11/09 02:43:02;;;;;;;1.27;0.70;;;;;;;13.52;72.25;100036.69;5008904;28;20048;-79
2022/11/09 02:45:29;;;;;;;0.70;0.43;;;;;;;13.48;72.54;100027.19;5034593;28;20045;-76
2022/11/09 02:47:55;;;;;;;1.15;0.57;;;;;;;13.45;72.80;100018.50;5015277;28;20050;-77
2022/11/09 02:50:22;;;;;;;0.60;0.60;;;;;;;13.43;72.83;100036.97;5023463;28;20855;-75
2022/11/09 02:52:48;;;;;;;0.65;0.60;;;;;;;13.40;73.22;100035.31;5017896;28;20037;-76
2022/11/09 02:55:15;;;;;;;1.17;0.50;;;;;;;13.39;73.57;100024.84;5033183;28;20471;-76
2022/11/09 02:57:42;;;;;;;1.08;0.55;;;;;;;13.35;73.53;100021.41;5013838;28;20045;-76
2022/11/09 03:00:09;;;;;;;1.85;0.50;;;;;;;13.31;73.89;100025.03;5013717;28;20049;-76
2022/11/09 03:02:36;;;;;;;0.40;0.40;;;;;;;13.34;74.05;100024.09;5025479;28;20052;-79
2022/11/09 03:05:03;;;;;;;0.68;0.57;;;;;;;13.32;74.23;100026.72;5029882;28;20391;-76
2022/11/09 03:07:29;;;;;;;0.30;0.30;;;;;;;13.29;74.60;100018.94;5011638;28;20096;-75
2022/11/09 03:09:56;;;;;;;0.98;0.52;;;;;;;13.31;74.50;100014.53;5039552;28;20674;-75
2022/11/09 03:12:31;;;;;;;3.28;1.02;;;;;;;13.31;74.59;100014.53;5026295;28;20133;-76
2022/11/09 03:15:04;;;;;;;1.80;0.90;;;;;;;13.31;74.90;100026.78;5005963;28;20056;-75
2022/11/09 03:17:32;;;;;;;0.90;0.90;;;;;;;13.28;75.13;100032.16;5010835;28;20456;-75
2022/11/09 03:19:59;;;;;;;0.85;0.70;;;;;;;13.27;75.20;100033.03;5018036;28;20045;-75
2022/11/09 03:22:26;;;;;;;0.80;0.50;;;;;;;13.26;75.15;100042.72;5020763;28;20065;-76
2022/11/09 03:24:52;;;;;;;0.98;0.60;;;;;;;13.21;75.38;100036.72;5005032;28;20056;-76
2022/11/09 03:27:19;;;;;;;2.17;1.02;;;;;;;13.15;75.56;100039.53;4996630;28;20048;-76
2022/11/09 03:29:45;;;;;;;2.03;0.75;;;;;;;13.11;76.04;100040.53;5007590;28;20045;-75
2022/11/09 03:32:12;;;;;;;1.05;0.73;;;;;;;13.07;75.95;100045.00;4998204;28;20444;-78
2022/11/09 03:34:38;;;;;;;0.60;0.57;;;;;;;13.03;76.48;100038.13;4995117;28;20145;-75
2022/11/09 03:37:05;;;;;;;1.13;0.70;;;;;;;12.99;76.76;100042.59;4996128;28;20477;-76
2022/11/09 03:39:32;;;;;;;1.13;0.60;;;;;;;12.93;77.12;100037.50;5011683;28;20042;-79
2022/11/09 03:41:58;;;;;;;0.95;0.40;;;;;;;12.88;77.25;100039.41;4994785;28;20493;-76
2022/11/09 03:44:25;;;;;;;1.77;0.55;;;;;;;12.81;77.65;100036.09;4994248;28;20136;-77
2022/11/09 03:46:52;;;;;;;0.85;0.85;;;;;;;12.74;77.89;100042.44;4997894;28;20052;-77
2022/11/09 03:49:18;;;;;;;3.30;0.98;;;;;;;12.67;78.62;100033.00;5001979;28;20096;-77
2022/11/09 03:51:45;;;;;;;1.45;0.60;;;;;;;12.60;78.72;100039.34;4998469;28;20057;-76
2022/11/09 03:54:12;;;;;;;0.70;0.70;;;;;;;12.56;79.30;100041.19;5000913;28;20061;-78
2022/11/09 03:56:38;;;;;;;0.68;0.68;;;;;;;12.53;79.46;100041.28;5016779;28;20132;-76
2022/11/09 03:59:05;;;;;;;1.13;0.88;;;;;;;12.54;79.55;100050.84;5009582;28;20034;-77
2022/11/09 04:01:32;;;;;;;0.98;0.60;;;;;;;12.54;79.59;100046.47;4976150;28;20045;-79
2022/11/09 04:03:58;;;;;;;2.95;1.17;;;;;;;12.55;79.74;100035.06;5010651;28;20045;-79
2022/11/09 04:06:25;;;;;;;1.92;0.88;;;;;;;12.61;79.75;100033.19;4994729;28;20716;-76
2022/11/09 04:08:51;;;;;;;1.30;0.57;;;;;;;12.66;78.93;100034.78;4990670;28;20037;-76
2022/11/09 04:11:18;;;;;;;1.25;0.70;;;;;;;12.70;78.94;100027.69;5018504;28;20078;-78
2022/11/09 04:13:44;;;;;;;0.82;0.60;;;;;;;12.76;78.78;100027.50;4994255;28;20053;-76
2022/11/09 04:16:11;;;;;;;0.60;0.60;;;;;;;12.79;78.64;100032.69;5014460;28;20052;-79
2022/11/09 04:18:37;;;;;;;1.65;0.77;;;;;;;12.85;78.59;100032.50;5002446;28;20064;-76
2022/11/09 04:21:04;;;;;;;1.00;1.00;;;;;;;12.93;78.25;100020.91;4994422;28;20200;-85
2022/11/09 04:23:31;;;;;;;1.63;0.70;;;;;;;12.93;77.97;100019.13;5030999;28;20041;-79
2022/11/09 04:25:58;;;;;;;4.75;0.90;;;;;;;12.94;78.12;100020.00;5022679;28;20046;-80
2022/11/09 04:28:25;;;;;;;0.88;0.70;;;;;;;12.94;78.13;100022.63;5028748;28;20041;-78
2022/11/09 04:30:51;;;;;;;3.33;0.68;;;;;;;12.92;78.55;100030.56;5029105;28;20072;-80
2022/11/09 04:33:18;;;;;;;1.13;0.90;;;;;;;12.94;78.27;100031.34;5013703;28;20065;-76
2022/11/09 04:35:46;;;;;;;1.10;0.73;;;;;;;12.90;78.65;100025.31;5020422;28;20132;-77
2022/11/09 04:38:14;;;;;;;2.25;0.65;;;;;;;12.91;78.75;100036.72;5031736;28;20718;-77
2022/11/09 04:40:41;;;;;;;1.20;0.73;;;;;;;13.01;78.63;100032.91;5010271;28;20037;-79
2022/11/09 04:43:14;;;;;;;1.00;0.68;;;;;;;13.05;78.31;100031.06;5007663;28;20057;-76
2022/11/09 04:45:41;;;;;;;1.05;0.70;;;;;;;13.03;78.66;100032.88;5015360;28;20635;-78
2022/11/09 04:48:12;;;;;;;1.35;0.60;;;;;;;13.03;79.11;100035.50;5042032;28;20045;-77
2022/11/09 04:50:39;;;;;;;0.40;0.40;;;;;;;13.12;79.01;100031.75;5012001;28;20053;-77
2022/11/09 04:53:12;;;;;;;1.00;0.88;;;;;;;13.06;79.30;100033.66;5037911;28;20052;-76
2022/11/09 04:55:39;;;;;;;1.80;0.88;;;;;;;13.02;79.62;100034.66;5023136;28;20040;-79
2022/11/09 04:58:06;;;;;;;0.63;0.40;;;;;;;13.04;79.83;100029.34;5013778;28;20049;-76
2022/11/09 05:00:36;;;;;;;2.45;0.60;;;;;;;13.02;79.89;100029.41;5030911;28;20045;-79
2022/11/09 05:03:06;;;;;;;1.65;0.80;;;;;;;12.93;80.79;100023.53;5018471;28;20045;-75
2022/11/09 05:05:34;;;;;;;0.85;0.68;;;;;;;12.95;81.20;100027.84;5030851;28;20045;-77
2022/11/09 05:08:01;;;;;;;0.68;0.55;;;;;;;12.95;81.30;100022.59;5006482;28;20120;-75
2022/11/09 05:10:28;;;;;;;0.55;0.50;;;;;;;12.91;81.61;100024.44;5015330;28;20049;-79
2022/11/09 05:13:06;;;;;;;1.48;0.63;;;;;;;13.07;81.46;100018.72;5027877;28;20053;-79
2022/11/09 05:15:39;;;;;;;1.38;1.08;;;;;;;13.06;81.30;100022.25;5020305;28;20052;-77
2022/11/09 05:18:06;;;;;;;0.80;0.60;;;;;;;13.01;81.84;100027.66;5028600;28;20491;-76
2022/11/09 05:20:33;;;;;;;0.40;0.40;;;;;;;12.95;82.05;100019.09;5014323;28;20041;-77
2022/11/09 05:25:48;;;;;;;1.67;1.58;;;;;;;13.03;82.12;100017.94;5012015;28;20041;-76
2022/11/09 05:28:14;;;;;;;0.65;0.45;;;;;;;12.99;82.29;100020.72;5017084;28;20500;-75
2022/11/09 05:30:41;;;;;;;1.95;0.70;;;;;;;13.01;82.69;100024.16;5032659;28;20037;-75
2022/11/09 05:33:10;;;;;;;1.95;0.68;;;;;;;12.95;82.99;100021.72;5032414;28;20046;-75
2022/11/09 05:35:37;;;;;;;1.55;0.73;;;;;;;12.93;82.83;100028.78;5030460;28;20055;-77
2022/11/09 05:38:03;;;;;;;2.33;1.27;;;;;;;12.87;83.32;100033.31;5030953;28;20057;-75
2022/11/09 05:40:32;;;;;;;2.88;1.13;;;;;;;12.80;83.70;100029.16;5024026;28;20983;-76
2022/11/09 05:43:01;;;;;;;2.17;0.82;;;;;;;12.75;84.11;100038.91;5009696;28;20416;-76
2022/11/09 05:45:27;;;;;;;2.50;0.70;;;;;;;12.72;84.81;100032.00;5017465;28;20042;-75
2022/11/09 05:47:54;;;;;;;1.40;1.02;;;;;;;12.74;84.52;100031.94;5001699;28;20056;-76
2022/11/09 05:50:23;;;;;;;1.02;0.80;;;;;;;12.70;84.81;100040.81;5026274;28;20179;-75
2022/11/09 05:52:51;;;;;;;1.15;0.60;;;;;;;12.63;85.27;100047.13;5026820;28;20045;-76
2022/11/09 05:55:18;;;;;;;1.35;0.90;;;;;;;12.62;85.68;100046.28;5006695;28;20041;-77
2022/11/09 05:57:44;;;;;;;2.30;0.68;;;;;;;12.62;86.14;100042.75;5024796;28;20061;-77
2022/11/09 06:00:12;;;;;;;0.90;0.63;;;;;;;12.54;86.82;100045.59;5031787;28;20669;-85
2022/11/09 06:02:38;;;;;;;2.88;1.42;;;;;;;12.57;86.53;100050.78;5011615;28;20454;-77
2022/11/09 06:05:05;;;;;;;0.63;0.50;;;;;;;12.54;86.84;100053.47;5026846;28;20136;-76
2022/11/09 06:07:33;;;;;;;0.47;0.47;;;;;;;12.58;87.07;100052.50;5008300;28;20045;-75
2022/11/09 06:09:59;;;;;;;6.25;3.80;;;;;;;12.58;86.96;100053.34;5027976;28;21295;-77
2022/11/09 06:12:26;;;;;;;2.53;0.80;;;;;;;12.58;87.26;100057.75;5011100;28;20059;-83
2022/11/09 06:14:52;;;;;;;0.80;0.73;;;;;;;12.63;87.05;100063.72;5008161;28;20045;-79
2022/11/09 06:17:19;;;;;;;3.05;1.00;;;;;;;12.70;87.47;100061.81;5011685;28;20622;-76
2022/11/09 06:19:45;;;;;;;1.65;1.00;;;;;;;12.72;87.34;100060.88;5012057;28;20415;-75
2022/11/09 06:22:12;;;;;;;1.15;0.65;;;;;;;12.83;86.83;100052.69;5010806;28;20066;-76
2022/11/09 06:24:38;;;;;;;1.77;0.93;;;;;;;12.83;86.80;100052.69;5012212;28;20080;-77
2022/11/09 06:27:05;;;;;;;2.75;0.90;;;;;;;12.83;86.63;100051.84;5029560;28;20034;-77
2022/11/09 06:29:31;;;;;;;3.00;0.93;;;;;;;12.82;87.30;100055.38;5012128;28;20366;-78
2022/11/09 06:31:58;;;;;;;1.95;0.68;;;;;;;12.84;87.38;100050.91;5022139;28;20045;-76
2022/11/09 06:34:24;;;;;;;4.70;0.98;;;;;;;12.84;87.20;100050.91;5030175;28;20049;-82
2022/11/09 06:36:51;;;;;;;1.35;1.23;;;;;;;12.80;87.44;100054.53;5028995;28;20518;-76
2022/11/09 06:39:17;;;;;;;3.30;0.88;;;;;;;12.77;88.00;100050.22;5021756;28;20091;-76
2022/11/09 06:41:44;;;;;;;1.60;0.80;;;;;;;12.81;87.89;100057.09;5015721;28;20049;-75
2022/11/09 06:44:11;;;;;;;2.85;1.52;;;;;;;12.83;88.47;100062.34;5024029;28;20136;-76
2022/11/09 06:46:38;;;;;;;1.95;1.15;;;;;;;12.89;88.04;100060.41;5013851;28;20053;-77
2022/11/09 06:49:04;;;;;;;4.40;1.02;;;;;;;12.89;88.35;100060.41;5013379;28;20041;-85
2022/11/09 06:51:31;;;;;;;1.23;0.85;;;;;;;12.84;88.52;100057.03;5021923;28;20041;-81
2022/11/09 06:53:57;;;;;;;2.47;0.80;;;;;;;12.84;88.83;100067.56;5037594;28;20133;-79
2022/11/09 06:56:24;;;;;;;2.75;1.48;;;;;;;12.81;89.28;100062.38;5009363;28;20183;-76
2022/11/09 06:58:50;;;;;;;2.50;1.05;;;;;;;12.79;89.47;100068.56;4995915;28;20132;-76
2022/11/09 07:01:19;;;;;;;3.38;1.27;;;;;;;12.79;89.75;100079.06;5034144;28;20044;-78
2022/11/09 07:03:46;;;;;;;2.83;1.30;;;;;;;12.75;89.87;100078.31;5030000;28;20424;-77
2022/11/09 07:06:13;;;;;;;5.00;1.33;;;;;;;12.78;90.13;100080.84;5012862;28;20140;-79
2022/11/09 07:08:40;;;;;;;1.73;0.90;;;;;;;12.82;89.92;100082.47;5012838;28;20053;-77
2022/11/09 07:11:15;;;;;;;2.35;1.02;;;;;;;12.87;89.76;100088.47;5036740;28;20073;-79
2022/11/09 07:13:42;;;;;;;4.82;1.17;;;;;;;12.88;89.67;100084.06;5002694;28;20132;-77
2022/11/09 07:16:10;;;;;;;1.35;0.80;;;;;;;12.90;89.68;100077.03;5033311;28;20049;-78
2022/11/09 07:18:37;;;;;;;1.90;1.63;;;;;;;12.94;89.37;100085.69;5022735;28;20045;-76
2022/11/09 07:21:07;;;;;;;3.13;1.48;;;;;;;13.00;89.06;100088.16;5021221;28;20065;-78
2022/11/09 07:23:33;;;;;;;1.45;0.68;;;;;;;13.02;88.75;100088.94;5011813;28;20084;-77
2022/11/09 07:26:01;;;;;;;3.00;1.00;;;;;;;13.04;88.77;100093.25;5032979;28;20033;-77
2022/11/09 07:28:28;;;;;;;1.52;1.40;;;;;;;13.07;88.58;100090.56;5016230;28;20120;-75
2022/11/09 07:30:54;;;;;;;2.58;0.88;;;;;;;13.12;88.24;100081.69;5014022;28;20037;-76
2022/11/09 07:33:22;;;;;;;1.88;0.70;;;;;;;13.17;87.82;100088.50;5032389;28;20037;-80
2022/11/09 07:35:49;;;;;;;1.95;1.17;;;;;;;13.19;87.48;100086.72;5042434;28;20052;-78
2022/11/09 07:38:15;;;;;;;1.13;0.98;;;;;;;13.23;87.72;100098.84;5036083;28;20042;-80
2022/11/09 07:40:44;;;;;;;2.28;1.65;;;;;;;13.26;87.24;100084.75;5022929;28;20033;-77
2022/11/09 07:43:12;;;;;;;1.73;0.80;;;;;;;13.31;86.80;100100.38;5012086;28;20400;-77
2022/11/09 07:45:39;;;;;;;1.10;1.00;;;;;;;13.35;87.12;100097.63;5017872;28;20048;-76
2022/11/09 07:48:10;;;;;;;2.08;1.27;;;;;;;13.39;86.82;100104.56;5036095;28;20052;-78
2022/11/09 07:50:39;;;;;;;5.95;1.38;;;;;;;13.40;86.77;100097.50;5023270;28;20040;-75
2022/11/09 07:53:07;;;;;;;1.58;0.82;;;;;;;13.41;87.11;100107.13;5015447;28;20045;-77
2022/11/09 07:55:35;;;;;;;2.08;0.80;;;;;;;13.43;87.03;100110.59;4998177;28;20054;-76
2022/11/09 07:58:05;;;;;;;2.10;0.85;;;;;;;13.44;87.05;100114.06;4998608;28;20041;-80
2022/11/09 08:00:35;;;;;;;3.17;0.93;;;;;;;13.47;87.12;100121.88;5023261;28;20112;-80
2022/11/09 08:03:02;;;;;;;0.73;0.65;;;;;;;13.52;87.33;100122.59;4988915;28;20118;-77
2022/11/09 08:05:29;;;;;;;2.92;1.00;;;;;;;13.54;86.85;100128.66;5022021;28;20092;-78
2022/11/09 08:07:59;;;;;;;2.67;1.13;;;;;;;13.51;86.90;100121.72;5007728;28;20076;-82
2022/11/09 08:10:28;;;;;;;2.13;0.70;;;;;;;13.51;87.01;100131.41;5015799;28;20148;-77
2022/11/09 08:13:01;;;;;;;2.60;0.93;;;;;;;13.48;87.26;100139.34;5027032;28;20132;-79
2022/11/09 08:15:29;;;;;;;2.17;1.00;;;;;;;13.52;86.92;100133.13;5000487;28;20060;-76
2022/11/09 08:18:00;;;;;;;1.80;1.15;;;;;;;13.53;87.03;100142.72;5017865;28;20049;-76
2022/11/09 08:20:27;;;;;;;3.45;1.70;;;;;;;13.56;86.69;100145.28;4997703;28;20152;-76
2022/11/09 08:22:53;;;;;;;1.08;0.80;;;;;;;13.59;86.48;100141.69;5027497;28;20086;-75
2022/11/09 08:25:20;;;;;;;4.25;0.95;;;;;;;13.61;86.35;100147.75;5055406;28;20045;-76
2022/11/09 08:27:46;;;;;;;1.05;0.93;;;;;;;13.62;86.31;100142.44;5022974;28;20049;-78
2022/11/09 08:30:17;;;;;;;1.35;1.27;;;;;;;13.65;85.71;100145.00;5021010;28;20049;-75
2022/11/09 08:32:44;;;;;;;3.60;0.75;;;;;;;13.69;85.15;100149.25;5017697;28;20068;-77
2022/11/09 08:35:16;;;;;;;1.58;0.85;;;;;;;13.70;85.11;100142.22;5038911;28;20654;-77
2022/11/09 08:37:45;;;;;;;1.40;0.75;;;;;;;13.72;84.91;100154.41;5016743;28;20099;-76
2022/11/09 08:40:13;;;;;;;0.70;0.70;;;;;;;13.70;84.98;100150.97;5017575;28;20042;-77
2022/11/09 08:42:39;;;;;;;3.50;0.95;;;;;;;13.69;85.22;100154.50;5016230;28;20545;-76
2022/11/09 08:45:06;;;;;;;3.60;0.93;;;;;;;13.70;85.29;100152.72;4999198;28;20120;-77
2022/11/09 08:47:33;;;;;;;3.47;1.63;;;;;;;13.69;85.38;100149.25;5024840;28;20421;-79
2022/11/09 08:50:00;;;;;;;3.88;0.70;;;;;;;13.68;85.89;100139.63;5018598;28;20045;-76
2022/11/09 08:52:27;;;;;;;1.65;0.73;;;;;;;13.66;87.63;100145.84;5030061;28;20052;-78
2022/11/09 08:54:55;;;;;;;2.10;0.85;;;;;;;13.58;88.73;100140.81;5019288;28;20389;-76
2022/11/09 08:57:21;;;;;;;1.75;0.88;;;;;;;13.53;89.38;100133.06;5022528;28;20045;-75
2022/11/09 08:59:48;;;;;;;7.05;1.33;;;;;;;13.51;90.95;100134.88;5027806;28;20099;-76
2022/11/09 09:02:14;;;;;;;7.43;1.65;;;;;;;13.49;91.01;100138.47;4986875;28;20061;-77
2022/11/09 09:04:42;;;;;;;1.83;0.85;;;;;;;13.51;90.87;100141.91;5017026;28;20360;-77
2022/11/09 09:07:09;;;;;;;1.35;0.70;;;;;;;13.55;90.57;100149.66;5025001;28;20073;-79
2022/11/09 09:09:37;;;;;;;6.57;0.95;;;;;;;13.63;90.30;100148.59;5023475;28;20048;-79
2022/11/09 09:12:07;;;;;;;1.80;0.95;;;;;;;13.67;89.95;100158.09;4993863;28;20045;-80
2022/11/09 09:14:35;;;;;;;0.73;0.73;;;;;;;13.69;89.59;100162.41;4997948;28;20045;-75
2022/11/09 09:17:01;;;;;;;1.77;0.80;;;;;;;13.69;89.49;100156.28;5001819;28;20049;-77
2022/11/09 09:19:29;;;;;;;1.95;0.70;;;;;;;13.67;89.61;100158.94;5037851;28;20040;-82
2022/11/09 09:21:55;;;;;;;2.80;0.70;;;;;;;13.63;90.15;100159.09;5030478;28;20789;-79
2022/11/09 09:24:22;;;;;;;1.20;0.63;;;;;;;13.61;90.62;100156.53;5020546;28;20053;-77
2022/11/09 09:26:51;;;;;;;3.58;0.70;;;;;;;13.64;90.55;100152.94;5028757;28;20144;-80
2022/11/09 09:29:18;;;;;;;3.00;1.13;;;;;;;13.63;90.69;100157.31;5032887;28;20396;-77
2022/11/09 09:31:44;;;;;;;0.82;0.82;;;;;;;13.65;90.33;100168.66;5009703;28;20561;-77
2022/11/09 09:34:12;;;;;;;1.85;0.50;;;;;;;13.67;90.86;100168.63;5029438;28;20124;-76
2022/11/09 09:36:38;;;;;;;3.95;0.73;;;;;;;13.69;90.49;100175.56;5026865;28;20061;-82
2022/11/09 09:39:05;;;;;;;0.63;0.35;;;;;;;13.74;90.62;100170.19;5042608;28;20048;-79
2022/11/09 09:41:36;;;;;;;2.47;0.40;;;;;;;13.72;90.41;100177.25;4997625;28;20034;-79
2022/11/09 09:44:20;;;;;;;0.70;0.40;;;;;;;13.72;89.52;100172.81;5031360;28;20049;-77
2022/11/09 09:47:03;;;;;;;2.53;0.88;;;;;;;13.70;89.78;100179.91;4994586;28;20045;-75
2022/11/09 09:49:35;;;;;;;1.75;0.43;;;;;;;13.67;89.95;100179.13;5008806;28;20041;-76
2022/11/09 09:52:15;;;;;;;1.20;0.30;;;;;;;13.66;90.17;100183.56;5047190;28;20140;-76
2022/11/09 09:54:57;;;;;;;1.42;0.30;;;;;;;13.64;89.37;100192.41;5025256;28;20047;-76
2022/11/09 09:57:30;;;;;;;1.85;0.38;;;;;;;13.65;89.47;100188.81;5030662;28;20041;-76
2022/11/09 10:00:01;;;;;;;0.73;0.55;;;;;;;13.65;89.11;100189.72;5039904;28;20048;-77
2022/11/09 10:02:31;;;;;;;0.55;0.40;;;;;;;13.66;88.80;100180.03;5022572;28;20128;-83
2022/11/09 10:05:01;;;;;;;0.90;0.38;;;;;;;13.63;88.96;100185.41;5013462;28;20135;-77
2022/11/09 10:07:58;;;;;;;0.93;0.65;;;;;;;13.61;89.15;100184.56;5022813;28;20502;-78
2022/11/09 10:10:43;;;;;;;1.75;0.25;;;;;;;13.61;89.28;100187.19;5015361;28;20395;-78
2022/11/09 10:13:48;;;;;;;1.92;0.70;;;;;;;13.62;89.35;100181.03;5022175;28;20052;-76
2022/11/09 10:16:33;;;;;;;2.22;0.30;;;;;;;13.68;88.27;100192.25;5026452;28;20049;-76
2022/11/09 10:19:31;;;;;;;2.75;0.40;;;;;;;13.70;86.75;100187.81;5036081;28;20511;-80
2022/11/09 10:22:26;;;;;;;2.10;0.40;;;;;;;13.72;86.09;100200.91;5010924;28;20041;-77
2022/11/09 10:25:01;;;;;;;1.17;0.30;;;;;;;13.66;86.42;100201.97;5019846;28;20048;-78
2022/11/09 10:27:43;;;;;;;2.03;0.30;;;;;;;13.66;86.70;100193.19;5011054;28;20504;-75
2022/11/09 10:30:17;;;;;;;1.70;0.75;;;;;;;13.68;86.49;100196.66;5039224;28;20067;-76
2022/11/09 10:32:48;;;;;;;2.20;0.70;;;;;;;13.64;86.24;100193.25;5026493;28;20377;-76
2022/11/09 10:35:38;;;;;;;1.33;0.40;;;;;;;13.60;86.29;100188.97;5013325;28;20476;-76
2022/11/09 10:38:14;;;;;;;3.22;0.65;;;;;;;13.57;86.12;100189.94;5016972;28;20068;-79
2022/11/09 10:40:52;;;;;;;0.70;0.32;;;;;;;13.56;85.45;100192.59;5018032;28;20761;-77
2022/11/09 10:43:19;;;;;;;4.78;1.63;;;;;;;13.55;85.87;100183.84;5010815;28;20114;-78
2022/11/09 10:45:46;;;;;;;1.77;0.60;;;;;;;13.66;85.61;100177.41;4997381;28;20046;-76
2022/11/09 10:48:14;;;;;;;0.60;0.22;;;;;;;13.79;84.77;100176.13;5027406;28;20048;-79
2022/11/09 10:50:50;;;;;;;3.30;0.20;;;;;;;13.85;84.51;100173.31;5027912;28;20060;-77
2022/11/09 10:53:23;;;;;;;4.50;1.38;;;;;;;13.78;84.79;100176.19;5028199;28;20049;-80
2022/11/09 10:55:58;;;;;;;3.55;0.98;;;;;;;13.69;85.04;100162.41;4999680;28;20080;-78
2022/11/09 10:58:40;;;;;;;3.58;0.70;;;;;;;13.61;85.60;100168.78;5024647;28;20461;-79
2022/11/09 11:01:25;;;;;;;6.32;0.73;;;;;;;13.61;84.83;100159.16;4990517;28;20148;-75
2022/11/09 11:03:56;;;;;;;1.58;0.30;;;;;;;13.67;82.52;100164.22;5003698;28;20046;-76
2022/11/09 11:06:22;;;;;;;1.48;0.68;;;;;;;13.73;81.10;100169.28;4996157;28;20116;-76
2022/11/09 11:09:17;;;;;;;3.90;0.40;;;;;;;13.76;80.67;100167.50;5027632;28;20067;-79
2022/11/09 11:11:43;;;;;;;2.92;0.50;;;;;;;13.77;80.76;100169.22;5022461;28;20046;-76
2022/11/09 11:14:42;;;;;;;1.60;0.43;;;;;;;13.82;80.53;100183.94;5013662;28;20515;-76
2022/11/09 11:17:25;;;;;;;3.63;0.88;;;;;;;13.98;78.26;100157.19;5009917;28;20053;-76
2022/11/09 11:19:52;;;;;;;2.20;0.47;;;;;;;14.05;78.75;100169.22;4996810;28;20087;-75
2022/11/09 11:22:26;;;;;;;3.03;0.60;;;;;;;14.09;78.81;100165.56;5012334;28;20061;-76
2022/11/09 11:24:57;;;;;;;0.65;0.43;;;;;;;14.10;78.93;100167.31;4996885;28;20435;-80
2022/11/09 11:27:34;;;;;;;1.20;0.40;;;;;;;14.18;78.53;100161.81;5026845;28;20739;-77
2022/11/09 11:30:06;;;;;;;2.15;0.40;;;;;;;14.25;77.43;100160.72;5010272;28;20049;-77
2022/11/09 11:32:32;;;;;;;0.70;0.30;;;;;;;14.45;74.88;100162.69;4991171;28;20140;-79
2022/11/09 11:34:59;;;;;;;1.08;0.30;;;;;;;14.58;72.89;100157.88;5019730;28;20041;-78
2022/11/09 11:37:54;;;;;;;0.80;0.50;;;;;;;14.78;72.21;100174.81;5022899;28;20041;-78